Time;durP1;ratioP1;P1;durP2;ratioP2;P2;SDS_P1;SDS_P2;PMS_P1;PMS_P2;Temp;Humidity;BMP_temperature;BMP_pressure;BME280_temperature;BME280_humidity;BME280_pressure;Samples;Min_cycle;Max_cycle;Signal;HPM_P1;HPM_P2
2022/11/05 00:10:30;;;;;;;11.00;3.42;;;;;;;9.91;50.58;101345.44;7394917;19;20240;-62
2022/11/05 00:18:27;;;;;;;11.48;3.70;;;;;;;9.86;50.49;101360.03;7393641;19;20014;-63
2022/11/05 00:20:53;;;;;;;12.93;4.15;;;;;;;9.98;50.06;101357.47;7392560;19;19998;-62
2022/11/05 00:26:06;;;;;;;11.40;3.38;;;;;;;9.70;50.51;101356.19;7390771;19;20010;-61
2022/11/05 00:28:32;;;;;;;10.70;2.83;;;;;;;9.63;50.89;101360.22;7392063;19;19999;-62
2022/11/05 00:31:04;;;;;;;12.38;3.78;;;;;;;9.73;50.78;101366.47;7393895;19;19999;-61
2022/11/05 00:33:30;;;;;;;11.05;3.30;;;;;;;9.81;50.38;101365.66;7393873;19;20038;-60
2022/11/05 00:35:55;;;;;;;13.25;3.63;;;;;;;9.71;50.54;101368.72;7392468;19;19999;-60
2022/11/05 00:38:21;;;;;;;9.70;3.58;;;;;;;9.78;50.32;101369.84;7393075;19;20308;-60
2022/11/05 00:40:47;;;;;;;9.23;3.53;;;;;;;9.72;50.50;101373.06;7391875;19;20078;-62
2022/11/05 00:45:57;;;;;;;;;;;;;;;9.49;50.72;101367.72;7392951;19;20013;-62
2022/11/05 00:51:07;;;;;;;13.50;3.42;;;;;;;9.39;50.90;101376.22;7393071;19;20406;-61
2022/11/05 00:53:33;;;;;;;10.20;3.30;;;;;;;9.29;51.32;101374.59;7390478;19;20450;-61
2022/11/05 00:55:59;;;;;;;10.57;3.30;;;;;;;9.35;51.12;101372.50;7389994;19;20002;-61
2022/11/05 00:58:27;;;;;;;14.70;3.97;;;;;;;9.46;50.63;101379.25;7392459;19;20331;-62
2022/11/05 01:00:55;;;;;;;16.55;3.97;;;;;;;9.37;50.84;101379.25;7393308;19;20018;-61
2022/11/05 01:03:25;;;;;;;12.55;3.40;;;;;;;9.37;50.80;101384.72;7392953;19;19999;-61
2022/11/05 01:05:53;;;;;;;12.25;4.18;;;;;;;9.36;51.10;101385.03;7391330;19;20006;-61
2022/11/05 01:08:21;;;;;;;8.93;3.40;;;;;;;9.39;50.78;101389.84;7390211;19;20002;-61
2022/11/05 01:10:49;;;;;;;9.77;4.07;;;;;;;9.51;50.65;101392.72;7392384;19;20005;-62
2022/11/05 01:13:17;;;;;;;13.05;3.72;;;;;;;9.53;50.70;101401.38;7392484;19;19994;-62
2022/11/05 01:15:44;;;;;;;9.40;3.47;;;;;;;9.45;50.54;101404.91;7392125;19;19994;-61
2022/11/05 01:18:10;;;;;;;11.07;3.53;;;;;;;9.44;50.62;101406.03;7391570;19;19998;-61
2022/11/05 01:20:36;;;;;;;12.25;3.22;;;;;;;9.48;50.71;101409.72;7391534;19;20038;-61
2022/11/05 01:23:02;;;;;;;14.23;3.80;;;;;;;9.49;50.44;101411.31;7392310;19;20021;-60
2022/11/05 01:25:34;;;;;;;14.70;3.70;;;;;;;9.55;50.58;101420.13;7389368;19;20007;-60
2022/11/05 01:28:02;;;;;;;15.05;3.55;;;;;;;9.50;50.47;101421.13;7389243;19;20022;-60
2022/11/05 01:30:28;;;;;;;11.10;3.55;;;;;;;9.40;50.45;101424.13;7392105;19;20003;-60
2022/11/05 01:32:53;;;;;;;8.18;3.08;;;;;;;9.38;50.38;101415.47;7392527;19;20026;-60
2022/11/05 01:35:19;;;;;;;15.90;3.85;;;;;;;9.29;51.00;101420.13;7390692;19;20005;-60
2022/11/05 01:37:45;;;;;;;9.35;3.25;;;;;;;9.32;50.66;101414.03;7389766;19;20111;-60
2022/11/05 01:40:18;;;;;;;16.55;3.50;;;;;;;9.30;50.77;101417.06;7392248;19;19999;-59
2022/11/05 01:42:44;;;;;;;11.93;3.60;;;;;;;9.35;50.54;101411.47;7389556;19;20357;-60
2022/11/05 01:45:18;;;;;;;11.90;3.85;;;;;;;9.36;50.46;101407.59;7391104;19;20006;-60
2022/11/05 01:48:10;;;;;;;9.65;3.53;;;;;;;9.35;50.18;101411.47;7390028;19;20082;-60
2022/11/05 01:50:41;;;;;;;12.65;3.60;;;;;;;9.31;50.16;101415.16;7389461;19;20017;-61
2022/11/05 01:53:25;;;;;;;9.18;3.33;;;;;;;9.34;50.33;101409.06;7391289;19;19998;-61
2022/11/05 01:55:54;;;;;;;;;;;;;;;9.32;50.13;101411.31;7390983;19;19995;-61
2022/11/05 01:58:23;;;;;;;9.95;3.03;;;;;;;9.31;50.46;101409.69;7390184;19;19926;-61
2022/11/05 02:00:56;;;;;;;10.65;3.10;;;;;;;9.22;50.54;101410.47;7391916;19;20002;-61
2022/11/05 02:03:22;;;;;;;8.50;2.95;;;;;;;9.42;49.81;101413.72;7391428;19;20018;-61
2022/11/05 02:05:51;;;;;;;11.57;2.92;;;;;;;9.39;49.77;101417.88;7389178;19;20096;-61
2022/11/05 02:08:35;;;;;;;8.95;3.15;;;;;;;9.41;49.71;101412.13;7388617;19;20040;-61
2022/11/05 02:11:01;;;;;;;;;;;;;;;9.34;49.74;101411.78;7392151;19;20024;-60
2022/11/05 02:13:27;;;;;;;11.27;3.58;;;;;;;9.29;49.81;101412.72;7389603;19;20294;-60
2022/11/05 02:16:03;;;;;;;12.98;3.35;;;;;;;9.31;50.21;101409.69;7389759;19;20091;-60
2022/11/05 02:18:55;;;;;;;9.10;2.78;;;;;;;9.21;50.26;101411.59;7390264;19;19998;-59
2022/11/05 02:21:38;;;;;;;13.18;3.42;;;;;;;9.29;50.08;101407.28;7389881;19;19998;-59
2022/11/05 02:24:17;;;;;;;10.82;3.10;;;;;;;9.09;50.07;101408.69;7390989;19;19999;-62
2022/11/05 02:27:17;;;;;;;13.00;3.25;;;;;;;9.05;50.26;101403.06;7387832;19;20026;-61
2022/11/05 02:30:03;;;;;;;11.98;3.55;;;;;;;9.22;50.02;101410.47;7390602;19;20209;-60
2022/11/05 02:32:49;;;;;;;11.52;3.17;;;;;;;9.37;49.27;101413.88;7391777;19;20127;-60
2022/11/05 02:35:33;;;;;;;11.88;3.05;;;;;;;9.31;49.33;101417.88;7389849;19;20040;-59
2022/11/05 02:38:15;;;;;;;14.23;3.23;;;;;;;9.25;49.62;101420.75;7389897;19;20002;-60
2022/11/05 02:41:06;;;;;;;10.10;2.97;;;;;;;9.15;49.73;101418.31;7390791;19;19998;-60
2022/11/05 02:43:50;;;;;;;12.50;2.75;;;;;;;9.18;49.69;101420.41;7390243;19;20317;-61
2022/11/05 02:46:32;;;;;;;8.10;2.45;;;;;;;9.18;49.52;101417.69;7387263;19;20498;-59
2022/11/05 02:49:02;;;;;;;10.48;3.20;;;;;;;9.20;49.68;101415.44;7387382;19;20082;-60
2022/11/05 02:51:40;;;;;;;12.63;3.17;;;;;;;9.22;49.50;101421.38;7390233;19;20490;-61
2022/11/05 02:54:23;;;;;;;10.68;2.92;;;;;;;9.21;49.50;101417.03;7391538;19;20010;-60
2022/11/05 02:56:52;;;;;;;11.35;3.22;;;;;;;9.17;49.64;101418.78;7397003;19;20002;-61
2022/11/05 02:59:17;;;;;;;10.43;3.30;;;;;;;9.05;49.83;101415.88;7398049;19;19999;-62
2022/11/05 03:01:45;;;;;;;11.73;3.50;;;;;;;9.08;50.02;101420.69;7397813;19;20019;-62
2022/11/05 03:04:15;;;;;;;11.95;3.30;;;;;;;9.09;49.89;101425.03;7397238;19;20050;-62
2022/11/05 03:07:19;;;;;;;13.13;3.50;;;;;;;9.19;49.55;101426.66;7390338;19;20022;-62
2022/11/05 03:10:01;;;;;;;11.93;3.45;;;;;;;9.13;49.74;101425.97;7396529;19;20002;-63
2022/11/05 03:12:41;;;;;;;9.43;2.97;;;;;;;9.11;49.99;101427.44;7394861;19;20032;-61
2022/11/05 03:15:21;;;;;;;13.45;3.30;;;;;;;9.14;49.80;101432.25;7396878;19;20023;-61
2022/11/05 03:18:10;;;;;;;10.40;3.00;;;;;;;9.06;49.95;101436.53;7396409;19;20407;-60
2022/11/05 03:21:03;;;;;;;17.65;3.33;;;;;;;9.10;49.82;101432.09;7396647;19;20028;-61
2022/11/05 03:23:55;;;;;;;9.90;2.95;;;;;;;9.16;49.69;101435.44;7396145;19;20018;-60
2022/11/05 03:26:37;;;;;;;13.18;3.25;;;;;;;9.05;49.83;101440.41;7392751;19;20533;-61
2022/11/05 03:29:12;;;;;;;12.98;3.42;;;;;;;9.15;49.47;101445.56;7395212;19;20466;-60
2022/11/05 03:31:40;;;;;;;13.05;3.53;;;;;;;9.06;49.84;101442.78;7395376;19;20010;-61
2022/11/05 03:34:07;;;;;;;12.40;3.20;;;;;;;8.99;50.08;101447.09;7394987;19;20459;-61
2022/11/05 03:36:40;;;;;;;15.48;3.58;;;;;;;8.94;50.13;101439.06;7391079;19;20005;-61
2022/11/05 03:39:09;;;;;;;8.93;3.22;;;;;;;9.01;49.93;101447.56;7393516;19;20471;-61
2022/11/05 03:41:42;;;;;;;11.02;2.97;;;;;;;9.12;49.53;101446.19;7395598;19;19999;-60
2022/11/05 03:44:11;;;;;;;10.18;3.00;;;;;;;9.04;49.50;101444.22;7393812;19;20104;-61
2022/11/05 03:46:48;;;;;;;12.05;3.10;;;;;;;8.98;49.79;101450.91;7390680;19;20030;-60
2022/11/05 03:49:29;;;;;;;10.35;2.90;;;;;;;8.89;49.85;101446.25;7398222;19;20018;-61
2022/11/05 03:52:04;;;;;;;10.25;2.90;;;;;;;8.88;49.63;101447.38;7394763;19;20002;-61
2022/11/05 03:54:31;;;;;;;8.57;2.85;;;;;;;8.82;49.87;101450.53;7395491;19;19998;-60
2022/11/05 03:57:03;;;;;;;12.60;2.92;;;;;;;8.83;49.73;101450.25;7391935;19;20002;-60
2022/11/05 03:59:31;;;;;;;9.70;2.92;;;;;;;8.95;49.73;101452.38;7395840;19;19995;-60
2022/11/05 04:01:57;;;;;;;11.50;3.08;;;;;;;8.80;49.73;101455.47;7394602;19;20288;-60
2022/11/05 04:04:23;;;;;;;12.65;2.92;;;;;;;8.67;50.01;101457.19;7394633;19;20109;-61
2022/11/05 04:15:01;;;;;;;11.80;3.40;;;;;;;8.59;50.16;101471.56;7394140;19;20350;-60
2022/11/05 04:17:27;;;;;;;10.13;2.85;;;;;;;8.73;49.54;101469.53;7393139;19;20478;-61
2022/11/05 04:25:21;;;;;;;9.85;2.97;;;;;;;8.53;50.12;101476.31;7393047;19;19999;-60
2022/11/05 04:27:48;;;;;;;9.57;3.03;;;;;;;8.36;50.74;101477.00;7392684;19;19995;-61
2022/11/05 04:30:18;;;;;;;13.13;3.17;;;;;;;8.48;50.68;101477.25;7392512;19;20003;-60
2022/11/05 04:33:00;;;;;;;11.43;3.05;;;;;;;8.60;49.85;101473.16;7393934;19;20003;-61
2022/11/05 04:35:32;;;;;;;12.10;3.53;;;;;;;8.47;50.14;101475.63;7391486;19;20009;-61
2022/11/05 04:37:58;;;;;;;11.35;3.35;;;;;;;8.61;49.92;101472.84;7393653;19;20002;-60
2022/11/05 04:40:24;;;;;;;9.93;3.13;;;;;;;8.52;50.30;101478.22;7391543;19;20455;-61
2022/11/05 04:42:49;;;;;;;11.93;3.28;;;;;;;8.60;50.12;101473.97;7394133;19;19991;-61
2022/11/05 04:45:15;;;;;;;10.43;3.60;;;;;;;8.53;50.02;101477.13;7392016;19;20002;-61
2022/11/05 04:47:41;;;;;;;14.60;3.30;;;;;;;8.57;50.15;101485.47;7392506;19;20462;-61
2022/11/05 04:50:09;;;;;;;10.13;2.80;;;;;;;8.72;49.84;101481.56;7392993;19;19999;-61
2022/11/05 04:52:35;;;;;;;10.93;3.35;;;;;;;8.75;49.62;101480.94;7393752;19;20007;-61
2022/11/05 04:55:00;;;;;;;10.60;3.08;;;;;;;8.74;49.64;101484.75;7392153;19;20007;-61
2022/11/05 04:57:26;;;;;;;8.85;3.50;;;;;;;8.62;49.82;101477.19;7392048;19;20058;-61
2022/11/05 04:59:53;;;;;;;12.80;3.20;;;;;;;8.65;49.71;101482.00;7392709;19;20005;-61
2022/11/05 05:02:19;;;;;;;9.32;3.33;;;;;;;8.58;49.83;101480.81;7368157;19;20028;-61
2022/11/05 05:04:45;;;;;;;13.43;3.22;;;;;;;8.67;49.77;101476.25;7390987;19;20066;-60
2022/11/05 05:07:11;;;;;;;8.88;2.90;;;;;;;8.48;50.12;101477.25;7387057;19;20031;-60
2022/11/05 05:09:36;;;;;;;11.38;3.60;;;;;;;8.46;50.00;101482.19;7392631;19;20006;-60
2022/11/05 05:12:02;;;;;;;10.02;3.28;;;;;;;8.50;49.93;101485.91;7390545;19;20014;-60
2022/11/05 05:14:28;;;;;;;11.93;4.13;;;;;;;8.39;50.32;101489.19;7392528;19;20005;-60
2022/11/05 05:17:03;;;;;;;10.02;3.53;;;;;;;8.32;50.23;101500.50;7388658;19;20018;-60
2022/11/05 05:19:28;;;;;;;12.00;3.50;;;;;;;8.25;50.57;101502.81;7390699;19;20025;-61
2022/11/05 05:21:54;;;;;;;14.25;3.78;;;;;;;8.40;50.29;101502.47;7392107;19;20074;-61
2022/11/05 05:24:20;;;;;;;10.23;3.90;;;;;;;8.57;49.94;101501.00;7392686;19;20011;-61
2022/11/05 05:26:49;;;;;;;13.00;3.42;;;;;;;8.58;49.75;101510.75;7388024;19;20018;-61
2022/11/05 05:29:16;;;;;;;12.75;3.85;;;;;;;8.62;49.54;101500.88;7392911;19;20007;-61
2022/11/05 05:31:43;;;;;;;14.88;3.78;;;;;;;8.64;49.64;101509.53;7391737;19;20482;-61
2022/11/05 05:34:13;;;;;;;12.02;4.30;;;;;;;8.65;49.64;101503.78;7389519;19;20344;-61
2022/11/05 05:36:38;;;;;;;12.75;3.45;;;;;;;8.70;49.46;101505.56;7390135;19;20014;-61
2022/11/05 05:39:05;;;;;;;13.77;4.13;;;;;;;8.65;49.49;101503.78;7389672;19;20003;-61
2022/11/05 05:41:31;;;;;;;13.65;4.05;;;;;;;8.68;49.47;101514.03;7391669;19;19998;-61
2022/11/05 05:43:57;;;;;;;11.10;3.78;;;;;;;8.60;49.83;101519.41;7391750;19;19994;-61
2022/11/05 05:46:23;;;;;;;11.55;3.88;;;;;;;8.60;49.67;101512.06;7390194;19;20041;-61
2022/11/05 05:48:50;;;;;;;13.80;3.92;;;;;;;8.61;49.66;101515.59;7388759;19;20354;-61
2022/11/05 05:51:17;;;;;;;12.90;3.78;;;;;;;8.59;49.48;101512.38;7391608;19;19999;-61
2022/11/05 05:53:43;;;;;;;15.90;3.90;;;;;;;8.58;49.74;101516.19;7390450;19;20014;-62
2022/11/05 05:56:09;;;;;;;9.82;3.35;;;;;;;8.63;49.32;101511.44;7389950;19;20002;-61
2022/11/05 05:58:37;;;;;;;10.73;3.63;;;;;;;8.67;49.41;101520.59;7389991;19;20002;-62
2022/11/05 06:01:06;;;;;;;9.55;4.00;;;;;;;8.57;49.78;101528.22;7390998;19;20010;-61
2022/11/05 06:03:32;;;;;;;7.57;2.80;;;;;;;8.45;49.92;101528.78;7389490;19;20006;-61
2022/11/05 06:06:18;;;;;;;8.35;3.28;;;;;;;8.53;50.06;101522.56;7389650;19;20006;-61
2022/11/05 06:08:44;;;;;;;10.75;3.30;;;;;;;8.43;49.93;101528.25;7387796;19;20011;-60
2022/11/05 06:11:09;;;;;;;8.73;3.53;;;;;;;8.33;50.50;101529.28;7390431;19;20002;-61
2022/11/05 06:13:36;;;;;;;10.38;4.07;;;;;;;8.48;50.17;101528.94;7389156;19;20010;-60
2022/11/05 06:16:06;;;;;;;9.70;3.60;;;;;;;8.44;49.93;101530.66;7390026;19;20028;-60
2022/11/05 06:18:34;;;;;;;10.77;3.50;;;;;;;8.37;50.08;101537.66;7390517;19;20011;-63
2022/11/05 06:21:08;;;;;;;13.00;3.67;;;;;;;8.45;49.99;101531.50;7391180;19;20007;-61
2022/11/05 06:23:36;;;;;;;11.93;3.80;;;;;;;8.46;49.94;101536.59;7388351;19;20488;-61
2022/11/05 06:26:10;;;;;;;12.40;3.83;;;;;;;8.41;50.20;101531.28;7389422;19;20010;-61
2022/11/05 06:28:36;;;;;;;11.80;3.47;;;;;;;8.33;50.32;101541.00;7389087;19;20058;-61
2022/11/05 06:31:02;;;;;;;15.27;4.10;;;;;;;8.31;50.44;101545.09;7395407;19;20076;-61
2022/11/05 06:33:28;;;;;;;11.73;4.15;;;;;;;8.34;50.06;101541.78;7398306;19;20010;-61
2022/11/05 06:35:56;;;;;;;11.90;3.70;;;;;;;8.33;50.29;101546.44;7394091;19;20007;-61
2022/11/05 06:38:22;;;;;;;12.70;3.35;;;;;;;8.43;50.13;101539.97;7395856;19;20006;-61
2022/11/05 06:40:48;;;;;;;8.20;3.80;;;;;;;8.37;50.18;101545.81;7398084;19;20026;-62
2022/11/05 06:43:13;;;;;;;8.18;3.50;;;;;;;8.39;49.89;101549.03;7395206;19;20022;-62
2022/11/05 06:45:39;;;;;;;9.55;4.07;;;;;;;8.34;50.23;101556.19;7395573;19;20006;-62
2022/11/05 06:48:05;;;;;;;8.15;3.50;;;;;;;8.33;50.04;101562.75;7395277;19;20438;-62
2022/11/05 06:50:30;;;;;;;13.23;5.32;;;;;;;8.42;49.78;101560.09;7395476;19;20014;-61
2022/11/05 06:53:01;;;;;;;9.95;3.90;;;;;;;8.49;49.92;101565.91;7396767;19;20006;-61
2022/11/05 06:55:28;;;;;;;14.80;4.22;;;;;;;8.44;49.86;101563.31;7396326;19;20007;-61
2022/11/05 06:57:54;;;;;;;11.95;4.05;;;;;;;8.36;49.87;101577.66;7395812;19;20003;-61
2022/11/05 07:00:20;;;;;;;9.88;4.25;;;;;;;8.27;50.49;101579.47;7397346;19;20380;-61
2022/11/05 07:02:46;;;;;;;15.88;4.95;;;;;;;8.36;50.11;101587.72;7397442;19;20002;-61
2022/11/05 07:05:13;;;;;;;10.50;3.80;;;;;;;8.29;50.43;101593.56;7397021;19;20002;-61
2022/11/05 07:07:40;;;;;;;10.15;3.95;;;;;;;8.35;50.39;101592.38;7393978;19;20007;-61
2022/11/05 07:10:08;;;;;;;11.82;4.40;;;;;;;8.48;49.90;101588.81;7396220;19;20348;-61
2022/11/05 07:12:33;;;;;;;13.07;5.20;;;;;;;8.51;49.99;101601.81;7395957;19;20009;-60
2022/11/05 07:14:59;;;;;;;11.05;4.75;;;;;;;8.44;50.21;101604.13;7395568;19;20066;-61
2022/11/05 07:17:24;;;;;;;15.23;5.45;;;;;;;8.55;49.75;101609.31;7395718;19;20474;-60
2022/11/05 07:19:50;;;;;;;15.82;5.47;;;;;;;8.58;49.60;101604.09;7396240;19;20098;-61
2022/11/05 07:22:23;;;;;;;17.85;6.82;;;;;;;8.57;49.73;101604.41;7394874;19;20018;-61
2022/11/05 07:24:49;;;;;;;18.15;6.18;;;;;;;8.62;49.64;101594.19;7395433;19;20494;-61
2022/11/05 07:27:15;;;;;;;17.02;7.05;;;;;;;8.52;49.99;101606.13;7395175;19;20007;-61
2022/11/05 07:29:41;;;;;;;16.30;7.35;;;;;;;8.57;49.95;101607.13;7396651;19;19999;-62
2022/11/05 07:32:07;;;;;;;16.67;6.97;;;;;;;8.57;50.07;101607.13;7395906;19;20003;-62
2022/11/05 07:34:33;;;;;;;16.98;6.30;;;;;;;8.61;49.94;101610.81;7394148;19;20002;-62
2022/11/05 07:36:58;;;;;;;17.90;7.05;;;;;;;8.64;49.82;101612.94;7390904;19;20006;-62
2022/11/05 07:39:24;;;;;;;15.45;6.20;;;;;;;8.79;49.38;101601.69;7396957;19;19998;-62
2022/11/05 07:41:56;;;;;;;16.80;6.50;;;;;;;8.81;49.56;101604.88;7392923;19;19999;-62
2022/11/05 07:44:23;;;;;;;14.90;5.68;;;;;;;8.74;49.61;101601.81;7396006;19;20033;-62
2022/11/05 07:46:49;;;;;;;15.88;5.53;;;;;;;8.73;49.50;101602.91;7392403;19;20003;-62
2022/11/05 07:49:16;;;;;;;15.05;5.55;;;;;;;8.81;49.64;101607.59;7395375;19;20006;-62
2022/11/05 07:51:41;;;;;;;12.45;5.10;;;;;;;8.83;49.72;101605.41;7395777;19;19999;-62
2022/11/05 07:54:07;;;;;;;13.80;5.80;;;;;;;8.80;49.57;101608.75;7396261;19;20070;-62
2022/11/05 07:56:32;;;;;;;20.30;6.18;;;;;;;8.86;49.41;101610.19;7391653;19;20315;-61
2022/11/05 07:58:58;;;;;;;10.10;4.68;;;;;;;8.87;49.64;101606.38;7395079;19;20022;-61
2022/11/05 08:01:24;;;;;;;11.73;5.00;;;;;;;8.85;49.91;101605.91;7393216;19;20070;-62
2022/11/05 08:03:49;;;;;;;12.30;5.18;;;;;;;9.02;49.46;101616.09;7395332;19;20480;-62
2022/11/05 08:06:15;;;;;;;13.60;5.18;;;;;;;9.00;49.35;101612.06;7391756;19;20380;-62
2022/11/05 08:08:41;;;;;;;15.20;4.80;;;;;;;8.84;49.87;101615.16;7392974;19;20040;-61
2022/11/05 08:11:08;;;;;;;14.48;5.18;;;;;;;8.89;49.78;101612.31;7395144;19;20022;-62
2022/11/05 08:13:34;;;;;;;12.25;4.82;;;;;;;9.00;49.69;101610.16;7392303;19;20007;-61
2022/11/05 08:16:00;;;;;;;13.85;4.72;;;;;;;9.10;49.52;101609.09;7394004;19;20013;-62
2022/11/05 08:18:30;;;;;;;11.32;4.72;;;;;;;9.21;49.09;101613.16;7393188;19;20054;-62
2022/11/05 08:20:58;;;;;;;12.63;4.47;;;;;;;9.25;49.40;101614.16;7395547;19;19995;-62
2022/11/05 08:23:25;;;;;;;10.38;4.47;;;;;;;9.34;48.98;101610.66;7393773;19;20015;-62
2022/11/05 08:25:50;;;;;;;10.82;4.10;;;;;;;9.30;49.24;101615.94;7393874;19;20498;-62
2022/11/05 08:28:16;;;;;;;10.50;4.43;;;;;;;9.30;49.71;101609.66;7392153;19;20032;-62
2022/11/05 08:30:42;;;;;;;12.73;4.75;;;;;;;9.27;49.56;101622.81;7394408;19;20005;-62
2022/11/05 08:33:10;;;;;;;14.98;4.57;;;;;;;9.24;49.59;101622.63;7394050;19;20281;-61
2022/11/05 08:35:37;;;;;;;13.98;4.97;;;;;;;9.26;49.73;101629.34;7391278;19;20009;-62
2022/11/05 08:38:04;;;;;;;9.85;4.10;;;;;;;9.27;49.75;101630.19;7391611;19;20022;-62
2022/11/05 08:40:31;;;;;;;13.27;4.50;;;;;;;9.24;49.85;101634.31;7392878;19;19999;-63
2022/11/05 08:42:58;;;;;;;11.27;4.88;;;;;;;9.44;49.47;101624.81;7392173;19;19999;-62
2022/11/05 08:45:28;;;;;;;11.68;4.32;;;;;;;9.63;48.94;101624.63;7391396;19;20003;-61
2022/11/05 08:48:04;;;;;;;11.18;4.10;;;;;;;9.76;49.06;101624.81;7392274;19;20029;-62
2022/11/05 08:50:31;;;;;;;10.35;4.30;;;;;;;9.90;48.77;101630.97;7392709;19;20002;-62
2022/11/05 08:52:57;;;;;;;12.07;4.10;;;;;;;9.94;48.89;101625.69;7391395;19;20030;-62
2022/11/05 08:55:22;;;;;;;10.30;4.10;;;;;;;9.99;48.57;101623.59;7392510;19;19995;-61
2022/11/05 08:57:54;;;;;;;9.98;3.88;;;;;;;10.06;48.52;101620.41;7392799;19;20069;-62
2022/11/05 09:00:19;;;;;;;11.93;3.70;;;;;;;10.12;48.23;101618.34;7392330;19;20022;-62
2022/11/05 09:02:45;;;;;;;13.25;3.75;;;;;;;10.05;48.88;101624.28;7393790;19;20007;-62
2022/11/05 09:05:10;;;;;;;11.02;3.55;;;;;;;10.08;48.87;101623.63;7392606;19;20034;-61
2022/11/05 09:07:36;;;;;;;9.18;3.35;;;;;;;10.21;48.49;101632.00;7387866;19;20472;-62
2022/11/05 09:10:02;;;;;;;10.07;3.63;;;;;;;10.16;48.71;101625.56;7392569;19;20352;-61
2022/11/05 09:12:27;;;;;;;10.32;3.92;;;;;;;10.16;48.58;101627.50;7392931;19;20077;-62
2022/11/05 09:14:53;;;;;;;15.88;4.07;;;;;;;10.28;48.49;101630.38;7391636;19;20459;-62
2022/11/05 09:17:20;;;;;;;10.60;3.88;;;;;;;10.23;48.57;101636.00;7391878;19;20346;-61
2022/11/05 09:19:46;;;;;;;11.25;4.20;;;;;;;10.19;48.89;101633.09;7391856;19;20007;-61
2022/11/05 09:22:12;;;;;;;10.57;3.30;;;;;;;10.14;48.75;101633.25;7392167;19;20027;-61
2022/11/05 09:24:39;;;;;;;9.25;3.63;;;;;;;10.27;48.63;101628.81;7392059;19;20472;-61
2022/11/05 09:27:05;;;;;;;12.15;3.42;;;;;;;10.32;48.27;101634.09;7387639;19;20003;-61
2022/11/05 09:29:31;;;;;;;8.93;3.15;;;;;;;10.38;48.43;101627.38;7392922;19;20006;-61
2022/11/05 09:31:57;;;;;;;10.75;3.35;;;;;;;10.50;48.04;101636.84;7392784;19;20343;-61
2022/11/05 09:34:22;;;;;;;9.25;3.17;;;;;;;10.57;47.99;101629.00;7391785;19;20017;-61
2022/11/05 09:36:48;;;;;;;7.30;2.88;;;;;;;10.64;47.92;101634.75;7388150;19;20009;-60
2022/11/05 09:39:13;;;;;;;9.30;2.83;;;;;;;10.69;47.93;101631.88;7390506;19;20002;-61
2022/11/05 09:41:42;;;;;;;7.85;2.97;;;;;;;10.76;47.85;101636.88;7391369;19;20009;-62
2022/11/05 09:44:17;;;;;;;9.88;3.50;;;;;;;10.72;47.80;101631.22;7392324;19;19999;-62
2022/11/05 09:46:48;;;;;;;10.32;2.72;;;;;;;10.69;47.79;101629.13;7389950;19;20339;-61
2022/11/05 09:49:29;;;;;;;9.23;3.10;;;;;;;10.81;47.86;101627.72;7387391;19;20115;-62
2022/11/05 09:51:57;;;;;;;9.68;2.88;;;;;;;10.89;47.47;101635.09;7392179;19;20023;-62
2022/11/05 09:54:27;;;;;;;9.05;2.72;;;;;;;10.95;47.37;101631.06;7392049;19;20396;-62
2022/11/05 09:56:54;;;;;;;11.23;2.92;;;;;;;10.86;47.74;101636.53;7389720;19;20014;-61
2022/11/05 09:59:23;;;;;;;8.55;3.17;;;;;;;10.98;47.19;101643.28;7390511;19;19999;-61
2022/11/05 10:01:52;;;;;;;9.93;3.20;;;;;;;10.99;47.08;101651.16;7391490;19;20072;-62
2022/11/05 10:04:21;;;;;;;7.75;3.08;;;;;;;11.13;47.14;101647.44;7389737;19;20003;-61
2022/11/05 10:07:04;;;;;;;10.90;3.00;;;;;;;11.14;47.25;101647.13;7388239;19;20254;-62
2022/11/05 10:09:39;;;;;;;9.90;3.30;;;;;;;10.96;47.64;101646.34;7390217;19;20010;-61
2022/11/05 10:12:14;;;;;;;8.82;3.38;;;;;;;11.13;47.21;101655.66;7390979;19;20118;-62
2022/11/05 10:14:50;;;;;;;8.65;3.20;;;;;;;11.23;46.99;101641.63;7391622;19;20006;-62
2022/11/05 10:17:24;;;;;;;8.55;3.00;;;;;;;11.25;47.02;101653.03;7389933;19;20002;-61
2022/11/05 10:20:01;;;;;;;12.90;3.30;;;;;;;11.31;46.77;101649.00;7390628;19;20464;-62
2022/11/05 10:22:27;;;;;;;11.10;3.05;;;;;;;11.30;46.63;101645.47;7389500;19;20228;-62
2022/11/05 10:24:53;;;;;;;7.03;2.90;;;;;;;11.40;46.58;101655.25;7390325;19;20498;-62
2022/11/05 10:27:28;;;;;;;10.73;2.72;;;;;;;11.42;46.68;101653.00;7387938;19;20009;-63
2022/11/05 10:29:54;;;;;;;9.20;3.10;;;;;;;11.47;46.72;101655.56;7391117;19;20026;-62
2022/11/05 10:32:34;;;;;;;9.95;2.80;;;;;;;11.49;46.56;101661.50;7389214;19;20534;-62
2022/11/05 10:35:02;;;;;;;7.97;2.70;;;;;;;11.53;46.44;101658.91;7390291;19;20490;-62
2022/11/05 10:37:30;;;;;;;10.88;3.45;;;;;;;11.53;46.18;101658.13;7389263;19;20006;-61
2022/11/05 10:39:56;;;;;;;8.77;3.08;;;;;;;11.53;46.43;101647.19;7389112;19;20010;-61
2022/11/05 10:43:03;;;;;;;10.20;3.10;;;;;;;11.48;46.62;101651.69;7390939;19;20006;-61
2022/11/05 10:45:33;;;;;;;8.93;2.80;;;;;;;11.51;46.85;101649.44;7388653;19;20007;-62
2022/11/05 10:48:02;;;;;;;9.57;3.30;;;;;;;11.54;46.58;101657.78;7387766;19;20489;-62
2022/11/05 10:50:29;;;;;;;8.68;2.75;;;;;;;11.34;46.97;101651.09;7391130;19;20017;-61
2022/11/05 10:52:59;;;;;;;9.73;3.22;;;;;;;11.54;46.51;101662.44;7388960;19;20348;-60
2022/11/05 10:55:31;;;;;;;7.20;3.20;;;;;;;11.51;46.98;101663.13;7389690;19;20030;-61
2022/11/05 10:58:12;;;;;;;11.25;3.35;;;;;;;11.53;46.71;101669.03;7390214;19;20026;-63
2022/11/05 11:00:38;;;;;;;8.60;3.83;;;;;;;11.57;46.62;101656.31;7391056;19;19999;-61
2022/11/05 11:03:25;;;;;;;8.13;3.83;;;;;;;11.60;46.64;101659.19;7388112;19;20002;-61
2022/11/05 11:05:58;;;;;;;7.20;3.05;;;;;;;11.60;46.72;101659.19;7388958;19;20011;-61
2022/11/05 11:08:24;;;;;;;8.85;3.33;;;;;;;11.72;46.42;101666.72;7386415;19;20010;-61
2022/11/05 11:10:57;;;;;;;8.25;3.03;;;;;;;11.88;46.24;101661.53;7388485;19;19994;-62
2022/11/05 11:13:25;;;;;;;7.30;3.50;;;;;;;11.88;46.64;101660.75;7390027;19;20303;-61
2022/11/05 11:15:51;;;;;;;8.90;3.10;;;;;;;11.93;46.16;101661.34;7388833;19;20066;-61
2022/11/05 11:18:36;;;;;;;9.07;3.50;;;;;;;11.99;46.12;101665.50;7396589;19;20006;-61
2022/11/05 11:21:15;;;;;;;9.43;2.92;;;;;;;11.93;46.05;101663.28;7396540;19;20009;-61
2022/11/05 11:23:51;;;;;;;9.50;3.30;;;;;;;11.92;46.38;101653.47;7397213;19;20032;-61
2022/11/05 11:26:17;;;;;;;9.88;3.22;;;;;;;11.87;46.65;101659.13;7392613;19;20070;-61
2022/11/05 11:28:46;;;;;;;7.60;3.28;;;;;;;11.95;46.59;101659.06;7393185;19;20020;-62
2022/11/05 11:31:24;;;;;;;9.40;3.10;;;;;;;11.99;46.35;101653.75;7394254;19;20054;-62
2022/11/05 11:34:03;;;;;;;9.15;3.33;;;;;;;12.03;46.04;101644.53;7396864;19;20331;-62
2022/11/05 11:36:43;;;;;;;8.52;3.15;;;;;;;12.15;45.80;101652.03;7391520;19;20003;-62
2022/11/05 11:39:14;;;;;;;6.20;2.70;;;;;;;12.18;45.84;101651.38;7395860;19;20022;-62
2022/11/05 11:41:42;;;;;;;13.07;3.10;;;;;;;12.27;45.93;101651.31;7395693;19;20013;-62
2022/11/05 11:44:25;;;;;;;6.50;2.97;;;;;;;12.21;45.55;101653.47;7393080;19;20002;-63
2022/11/05 11:46:57;;;;;;;9.68;3.05;;;;;;;12.15;45.80;101657.50;7392563;19;19999;-63
2022/11/05 11:49:40;;;;;;;11.82;3.20;;;;;;;12.18;45.72;101651.38;7394079;19;20320;-63
2022/11/05 11:52:14;;;;;;;8.00;3.03;;;;;;;12.20;45.86;101646.38;7395825;19;19998;-64
2022/11/05 11:54:40;;;;;;;9.35;2.75;;;;;;;12.17;45.93;101643.50;7393323;19;19995;-64
2022/11/05 11:57:41;;;;;;;7.93;2.92;;;;;;;12.26;45.77;101647.00;7392172;19;20017;-64
2022/11/05 12:00:08;;;;;;;7.32;2.53;;;;;;;12.30;45.70;101658.88;7394210;19;20022;-61
2022/11/05 12:02:58;;;;;;;7.30;2.70;;;;;;;12.47;45.46;101649.72;7394693;19;19999;-61
2022/11/05 12:05:42;;;;;;;7.80;2.88;;;;;;;12.50;45.38;101657.28;7394228;19;20013;-62
2022/11/05 12:08:11;;;;;;;;;;;;;;;12.37;45.24;101658.34;7392313;19;20007;-63
2022/11/05 12:10:47;;;;;;;8.82;2.75;;;;;;;12.33;45.31;101662.91;7394794;19;19962;-62
2022/11/05 12:13:26;;;;;;;8.05;2.65;;;;;;;12.47;45.21;101657.16;7394972;19;20455;-63
2022/11/05 12:15:54;;;;;;;8.70;3.42;;;;;;;12.57;45.02;101652.09;7392390;19;20469;-62
2022/11/05 12:18:50;;;;;;;8.30;2.88;;;;;;;12.67;44.83;101652.81;7392816;19;20002;-62